Flight Track Log - Related Links

Times and Time Zones

All times are in EDT time to prevent confusion due to time zone crossing. See the DAL1979 flight status page for this flight to view local times or setup timezone preferences in your user account.

Time Position Orientation Groundspeed Altitude Reporting Facility
EDT Latitude Longitude Course Direction KTS MPH feet Rate Location/Type
Sun 04:01:35 PM 28.4333 -81.3000 270° West 175 201 500  Level Orlando TRACON
Sun 04:01:37 PM 28.4380 -81.2970 358° North 159 183 700 2,444 Climbing FlightAware ADS-B
Sun 04:02:02 PM 28.4600 -81.3010 351° North 181 208 1,600 1,500 Climbing FlightAware ADS-B
Sun 04:02:29 PM 28.4833 -81.3000 360° North 211 243 2,000 1,650 Climbing Orlando TRACON
Sun 04:03:22 PM 28.5410 -81.3210 348° North 263 303 3,800 1,775 Climbing FlightAware ADS-B
Sun 04:06:00 PM 28.7991 -81.4702 270° West  Level Estimated
Sun 04:08:07 PM 28.4720 -81.6830 360° North 369 425 12,000  Level FlightAware ADS-B
Sun 04:10:37 PM 28.5110 -81.9770 279° West 396 456 17,300 2,027 Climbing FlightAware ADS-B
Sun 04:11:52 PM 28.5390 -82.1390 281° West 409 471 19,600 1,670 Climbing FlightAware ADS-B
Sun 04:12:32 PM 28.5550 -82.2250 282° West 421 484 20,500 1,553 Climbing FlightAware ADS-B
Sun 04:13:17 PM 28.5790 -82.3240 285° West 428 493 21,800 1,694 Climbing FlightAware ADS-B
Sun 04:13:57 PM 28.6320 -82.3930 311° West 444 511 22,900 1,482 Climbing FlightAware ADS-B
Sun 04:14:42 PM 28.7100 -82.4460 329° Northwest 451 519 23,900 1,341 Climbing FlightAware ADS-B
Sun 04:15:22 PM 28.7830 -82.4950 330° Northwest 458 527 24,800 1,275 Climbing FlightAware ADS-B
Sun 04:16:02 PM 28.8560 -82.5430 330° Northwest 463 533 25,600 960 Climbing FlightAware ADS-B
Sun 04:16:37 PM 28.9190 -82.5850 330° Northwest 465 535 26,000 240 Climbing FlightAware ADS-B
Sun 04:17:42 PM 29.0350 -82.6640 329° Northwest 455 524 26,000  Level FlightAware ADS-B
Sun 04:18:52 PM 29.1590 -82.7470 330° Northwest 462 532 26,000  Level FlightAware ADS-B
Sun 04:19:27 PM 29.2150 -82.7860 329° Northwest 462 532 26,000  Level FlightAware ADS-B
Sun 04:20:17 PM 29.2930 -82.8390 329° Northwest 462 532 26,000  Level FlightAware ADS-B
Sun 04:20:57 PM 29.3550 -82.8820 329° Northwest 462 532 26,000  Level FlightAware ADS-B
Sun 04:21:37 PM 29.4170 -82.9250 329° Northwest 462 532 26,000  Level FlightAware ADS-B
Sun 04:22:17 PM 29.4790 -82.9680 329° Northwest 462 532 26,000  Level FlightAware ADS-B
Sun 04:23:16 PM 29.6400 -83.0622 329° Northwest 466 536 26,000  Level Jacksonville Center
Sun 04:24:16 PM 29.7528 -83.1319 332° Northwest 455 524 26,000  Level Jacksonville Center
Sun 04:25:16 PM 29.8675 -83.2017 332° Northwest 455 524 26,000  Level Jacksonville Center
Sun 04:26:16 PM 29.9758 -83.2667 333° Northwest 455 524 26,000  Level Jacksonville Center
Sun 04:27:16 PM 30.0883 -83.3319 333° Northwest 455 524 26,000  Level Jacksonville Center
Sun 04:28:16 PM 30.2008 -83.4019 332° Northwest 455 524 26,000 936 Level Jacksonville Center
Sun 04:33:47 PM 30.7080 -83.7690 332° Northwest 425 489 32,100 1,213 Climbing FlightAware ADS-B
Sun 04:34:32 PM 30.8530 -83.8580 332° Northwest 420 483 33,600 1,200 Climbing FlightAware ADS-B
Sun 04:35:22 PM 30.9310 -83.9080 331° Northwest 419 482 34,000 240 Climbing FlightAware ADS-B
Sun 04:36:12 PM 31.0040 -83.9550 331° Northwest 419 482 34,000  Level FlightAware ADS-B
Sun 04:36:52 PM 31.0610 -83.9920 331° Northwest 419 482 34,000  Level FlightAware ADS-B
Sun 04:37:32 PM 31.1190 -84.0290 331° Northwest 419 482 34,000  Level FlightAware ADS-B
Sun 04:38:12 PM 31.1760 -84.0660 331° Northwest 419 482 34,000  Level FlightAware ADS-B
Sun 04:38:52 PM 31.2340 -84.1040 331° Northwest 419 482 34,000  Level FlightAware ADS-B
Sun 04:39:42 PM 31.3060 -84.1510 331° Northwest 419 482 34,000  Level FlightAware ADS-B
Sun 04:40:22 PM 31.3640 -84.1880 331° Northwest 419 482 34,000  Level FlightAware ADS-B
Sun 04:41:02 PM 31.4210 -84.2250 331° Northwest 419 482 34,000  Level FlightAware ADS-B
Sun 04:41:42 PM 31.4790 -84.2630 331° Northwest 419 482 34,000  Level FlightAware ADS-B
Sun 04:42:22 PM 31.5370 -84.3000 331° Northwest 419 482 34,000  Level FlightAware ADS-B
Sun 04:43:12 PM 31.6090 -84.3470 331° Northwest 419 482 34,000  Level FlightAware ADS-B
Sun 04:43:52 PM 31.6660 -84.3850 330° Northwest 419 482 34,000  Level FlightAware ADS-B
Sun 04:44:32 PM 31.7240 -84.4220 332° Northwest 419 482 34,000  Level FlightAware ADS-B
Sun 04:46:47 PM 32.1200 -84.6550 334° Northwest 34,000  Level FlightAware ADS-B
Sun 04:47:47 PM 32.2180 -84.7190 331° Northwest 423 487 34,000  Level FlightAware ADS-B
Sun 04:48:27 PM 32.2760 -84.7570 331° Northwest 423 487 34,000  Level FlightAware ADS-B
Sun 04:49:07 PM 32.3350 -84.7950 331° Northwest 423 487 34,000  Level FlightAware ADS-B
Sun 04:49:57 PM 32.4410 -84.8620 332° Northwest 422 486 34,000  Level FlightAware ADS-B
Sun 04:50:37 PM 32.5120 -84.9080 331° Northwest 420 483 34,000  Level FlightAware ADS-B
Sun 04:51:22 PM 32.5880 -84.9580 331° Northwest 420 483 34,000  Level FlightAware ADS-B
Sun 04:52:02 PM 32.6570 -85.0020 332° Northwest 426 490 34,000  Level FlightAware ADS-B
Sun 04:53:52 PM 32.8450 -85.1240 331° Northwest 423 487 34,000  Level FlightAware ADS-B
Sun 04:55:02 PM 32.9700 -85.2050 331° Northwest 421 484 34,000  Level FlightAware ADS-B
Sun 04:55:47 PM 33.0510 -85.2580 331° Northwest 419 482 34,000  Level FlightAware ADS-B
Sun 04:56:42 PM 33.1370 -85.3150 331° Northwest 420 483 34,000  Level FlightAware ADS-B
Sun 04:57:32 PM 33.2270 -85.3740 331° Northwest 418 481 34,000  Level FlightAware ADS-B
Sun 04:58:22 PM 33.3060 -85.4260 331° Northwest 418 481 34,000  Level FlightAware ADS-B
Sun 04:59:02 PM 33.3780 -85.4740 331° Northwest 418 481 34,000  Level FlightAware ADS-B
Sun 04:59:52 PM 33.4580 -85.5260 332° Northwest 403 464 34,000  Level FlightAware ADS-B
Sun 05:00:37 PM 33.5370 -85.5780 331° Northwest 406 467 34,000  Level FlightAware ADS-B
Sun 05:01:17 PM 33.5990 -85.6200 331° Northwest 402 463 34,000  Level FlightAware ADS-B
Sun 05:02:02 PM 33.6650 -85.6650 330° Northwest 402 463 34,000  Level FlightAware ADS-B
Sun 05:02:42 PM 33.7200 -85.7030 330° Northwest 402 463 34,000  Level FlightAware ADS-B
Sun 05:03:22 PM 33.7740 -85.7410 330° Northwest 402 463 34,000  Level FlightAware ADS-B
Sun 05:04:12 PM 33.8430 -85.7890 330° Northwest 402 463 34,000  Level FlightAware ADS-B
Sun 05:04:52 PM 33.8980 -85.8270 330° Northwest 402 463 34,000  Level FlightAware ADS-B
Sun 05:05:32 PM 33.9520 -85.8650 330° Northwest 402 463 34,000 1,967 Level FlightAware ADS-B
Sun 05:05:53 PM 34.0516 -85.9214 335° Northwest 397 457 36,000 2,353 Climbing FlightAware ADS-B
Sun 05:06:23 PM 34.1007 -85.9543 331° Northwest 398 458 36,000  Level FlightAware ADS-B
Sun 05:06:56 PM 34.1539 -85.9903 331° Northwest 399 459 36,000  Level FlightAware ADS-B
Sun 05:07:27 PM 34.2026 -86.0231 331° Northwest 399 459 36,000  Level FlightAware ADS-B
Sun 05:07:59 PM 34.2556 -86.0588 331° Northwest 401 461 36,000  Level FlightAware ADS-B
Sun 05:08:46 PM 34.3317 -86.1100 331° Northwest 402 463 36,000  Level FlightAware ADS-B
Sun 05:09:29 PM 34.4022 -86.1577 331° Northwest 403 464 36,000  Level FlightAware ADS-B
Sun 05:10:05 PM 34.4602 -86.1968 331° Northwest 405 466 36,000  Level FlightAware ADS-B
Sun 05:11:07 PM 34.5624 -86.2660 331° Northwest 403 464 36,000  Level FlightAware ADS-B
Sun 05:12:24 PM 34.6867 -86.3507 331° Northwest 403 464 36,000  Level FlightAware ADS-B
Sun 05:13:06 PM 34.7542 -86.3967 331° Northwest 399 459 36,000  Level FlightAware ADS-B
Sun 05:14:08 PM 34.8551 -86.4657 331° Northwest 399 459 36,000  Level FlightAware ADS-B
Sun 05:18:21 PM 35.2629 -86.7458 331° Northwest 401 461 36,000  Level FlightAware ADS-B
Sun 05:18:52 PM 35.3134 -86.7808 331° Northwest 403 464 36,000  Level FlightAware ADS-B
Sun 05:19:23 PM 35.3628 -86.8150 331° Northwest 403 464 36,000  Level FlightAware ADS-B
Sun 05:19:54 PM 35.4135 -86.8503 330° Northwest 403 464 36,000  Level FlightAware ADS-B
Sun 05:20:25 PM 35.4635 -86.8849 331° Northwest 404 465 36,000  Level FlightAware ADS-B
Sun 05:21:19 PM 35.5522 -86.9465 331° Northwest 405 466 36,000  Level FlightAware ADS-B
Sun 05:21:50 PM 35.6026 -86.9817 330° Northwest 406 467 36,000  Level FlightAware ADS-B
Sun 05:22:23 PM 35.6577 -87.0200 331° Northwest 407 468 36,000  Level FlightAware ADS-B
Sun 05:23:08 PM 35.7225 -87.0508 331° Northwest 412 474 36,000  Level Memphis Center
Sun 05:24:08 PM 35.8203 -87.1211 330° Northwest 412 474 36,000  Level Memphis Center
Sun 05:25:08 PM 35.9178 -87.1889 331° Northwest 412 474 36,000  Level Memphis Center
Sun 05:26:08 PM 36.0178 -87.2594 330° Northwest 407 468 36,000  Level Memphis Center
Sun 05:27:08 PM 36.1172 -87.3278 331° Northwest 407 468 36,000  Level Memphis Center
Sun 05:28:08 PM 36.2128 -87.3986 329° Northwest 407 468 36,000  Level Memphis Center
Sun 05:33:37 PM 36.7600 -87.8020 329° Northwest 422 486 36,000  Level FlightAware ADS-B
Sun 05:34:12 PM 36.8140 -87.8430 329° Northwest 422 486 36,000  Level FlightAware ADS-B
Sun 05:35:02 PM 36.8860 -87.8960 330° Northwest 422 486 36,000  Level FlightAware ADS-B
Sun 05:35:52 PM 36.9860 -87.9670 330° Northwest 422 486 36,000  Level FlightAware ADS-B
Sun 05:36:32 PM 37.0590 -88.0190 330° Northwest 421 484 36,000  Level FlightAware ADS-B
Sun 05:37:17 PM 37.1320 -88.0720 330° Northwest 420 483 36,000  Level FlightAware ADS-B
Sun 05:37:52 PM 37.1950 -88.1180 330° Northwest 420 483 36,000  Level FlightAware ADS-B
Sun 05:38:47 PM 37.2830 -88.1830 330° Northwest 415 478 36,000  Level FlightAware ADS-B
Sun 05:39:22 PM 37.3460 -88.2290 330° Northwest 414 476 36,000  Level FlightAware ADS-B
Sun 05:40:03 PM 37.4130 -88.2780 330° Northwest 412 474 36,000  Level FlightAware ADS-B
Sun 05:40:47 PM 37.4850 -88.3310 330° Northwest 411 473 36,000  Level FlightAware ADS-B
Sun 05:41:32 PM 37.5610 -88.3870 330° Northwest 411 473 36,000  Level FlightAware ADS-B
Sun 05:42:17 PM 37.6330 -88.4400 330° Northwest 411 473 36,000  Level FlightAware ADS-B
Sun 05:42:57 PM 37.6990 -88.4900 329° Northwest 413 475 36,000  Level FlightAware ADS-B
Sun 05:43:37 PM 37.7660 -88.5390 330° Northwest 414 476 36,000  Level FlightAware ADS-B
Sun 05:44:17 PM 37.8320 -88.5880 330° Northwest 416 479 36,000  Level FlightAware ADS-B
Sun 05:45:02 PM 37.9050 -88.6430 329° Northwest 417 480 36,000  Level FlightAware ADS-B
Sun 05:45:47 PM 37.9810 -88.7000 329° Northwest 418 481 36,000  Level FlightAware ADS-B
Sun 05:46:27 PM 38.0470 -88.7500 329° Northwest 421 484 36,000  Level FlightAware ADS-B
Sun 05:47:02 PM 38.1080 -88.7960 329° Northwest 422 486 36,000  Level FlightAware ADS-B
Sun 05:47:47 PM 38.1820 -88.8510 330° Northwest 424 488 36,000  Level FlightAware ADS-B
Sun 05:48:32 PM 38.2610 -88.9110 329° Northwest 426 490 36,000  Level FlightAware ADS-B
Sun 05:49:07 PM 38.3190 -88.9550 329° Northwest 424 488 36,000  Level FlightAware ADS-B
Sun 05:49:57 PM 38.4020 -89.0180 329° Northwest 422 486 36,000  Level FlightAware ADS-B
Sun 05:50:37 PM 38.4690 -89.0690 329° Northwest 419 482 36,000  Level FlightAware ADS-B
Sun 05:51:17 PM 38.5330 -89.1180 329° Northwest 418 481 36,000  Level FlightAware ADS-B
Sun 05:52:02 PM 38.6100 -89.1770 329° Northwest 416 479 36,000  Level FlightAware ADS-B
Sun 05:52:37 PM 38.6610 -89.2170 329° Northwest 415 478 36,000  Level FlightAware ADS-B
Sun 05:53:22 PM 38.7410 -89.2770 330° Northwest 411 473 36,000  Level FlightAware ADS-B
Sun 05:54:07 PM 38.8150 -89.3340 329° Northwest 410 472 36,000  Level FlightAware ADS-B
Sun 05:54:47 PM 38.8810 -89.3850 329° Northwest 410 472 36,000  Level FlightAware ADS-B
Sun 05:55:32 PM 38.9510 -89.4390 329° Northwest 411 473 36,000  Level FlightAware ADS-B
Sun 05:56:17 PM 39.0190 -89.4940 328° Northwest 411 473 36,000  Level FlightAware ADS-B
Sun 05:56:57 PM 39.0900 -89.5470 330° Northwest 411 473 36,000  Level FlightAware ADS-B
Sun 05:57:37 PM 39.1520 -89.5960 329° Northwest 412 474 36,000  Level FlightAware ADS-B
Sun 05:58:22 PM 39.2280 -89.6550 329° Northwest 414 476 36,000  Level FlightAware ADS-B
Sun 05:59:02 PM 39.2960 -89.7080 329° Northwest 414 476 36,000  Level FlightAware ADS-B
Sun 05:59:37 PM 39.3480 -89.7490 329° Northwest 416 479 36,000  Level FlightAware ADS-B
Sun 06:00:27 PM 39.4360 -89.8180 329° Northwest 419 482 36,000  Level FlightAware ADS-B
Sun 06:01:07 PM 39.5000 -89.8690 328° Northwest 420 483 36,000  Level FlightAware ADS-B
Sun 06:01:47 PM 39.5700 -89.9230 329° Northwest 423 487 36,000  Level FlightAware ADS-B
Sun 06:02:32 PM 39.6460 -89.9840 328° Northwest 423 487 36,000  Level FlightAware ADS-B
Sun 06:03:17 PM 39.7200 -90.0430 328° Northwest 423 487 36,000  Level FlightAware ADS-B
Sun 06:03:57 PM 39.7870 -90.0970 328° Northwest 422 486 36,000  Level FlightAware ADS-B
Sun 06:04:37 PM 39.8520 -90.1480 329° Northwest 422 486 36,000  Level FlightAware ADS-B
Sun 06:05:17 PM 39.9120 -90.1970 328° Northwest 422 486 36,000  Level FlightAware ADS-B
Sun 06:06:02 PM 39.9940 -90.2620 329° Northwest 420 483 36,000  Level FlightAware ADS-B
Sun 06:06:37 PM 40.0510 -90.3070 329° Northwest 419 482 36,000  Level FlightAware ADS-B
Sun 06:07:27 PM 40.1360 -90.3760 328° Northwest 419 482 36,000  Level FlightAware ADS-B
Sun 06:08:07 PM 40.2000 -90.4280 328° Northwest 418 481 36,000  Level FlightAware ADS-B
Sun 06:09:02 PM 40.2860 -90.4980 328° Northwest 418 481 36,000  Level FlightAware ADS-B
Sun 06:09:47 PM 40.3670 -90.5640 328° Northwest 415 478 36,000  Level FlightAware ADS-B
Sun 06:10:27 PM 40.4290 -90.6140 328° Northwest 415 478 36,000  Level FlightAware ADS-B
Sun 06:11:12 PM 40.5070 -90.6770 328° Northwest 415 478 36,000  Level FlightAware ADS-B
Sun 06:11:52 PM 40.5710 -90.7310 327° Northwest 416 479 36,000  Level FlightAware ADS-B
Sun 06:12:32 PM 40.6370 -90.7840 329° Northwest 415 478 36,000  Level FlightAware ADS-B
Sun 06:13:17 PM 40.7090 -90.8440 328° Northwest 415 478 36,000  Level FlightAware ADS-B
Sun 06:13:57 PM 40.7740 -90.8970 328° Northwest 414 476 36,000  Level FlightAware ADS-B
Sun 06:14:42 PM 40.8470 -90.9580 328° Northwest 413 475 36,000  Level FlightAware ADS-B
Sun 06:15:22 PM 40.9070 -91.0070 328° Northwest 413 475 36,000  Level FlightAware ADS-B
Sun 06:16:02 PM 40.9760 -91.0650 328° Northwest 412 474 36,000  Level FlightAware ADS-B
Sun 06:16:47 PM 41.0500 -91.1270 328° Northwest 411 473 36,000  Level FlightAware ADS-B
Sun 06:17:27 PM 41.1160 -91.1820 328° Northwest 412 474 36,000  Level FlightAware ADS-B
Sun 06:18:07 PM 41.1740 -91.2310 328° Northwest 410 472 36,000  Level FlightAware ADS-B
Sun 06:18:42 PM 41.2340 -91.2810 328° Northwest 410 472 36,000  Level FlightAware ADS-B
Sun 06:19:32 PM 41.3130 -91.3470 328° Northwest 408 470 36,000  Level FlightAware ADS-B
Sun 06:20:17 PM 41.3880 -91.4110 327° Northwest 407 468 36,000  Level FlightAware ADS-B
Sun 06:20:57 PM 41.4510 -91.4640 328° Northwest 405 466 36,000  Level FlightAware ADS-B
Sun 06:21:37 PM 41.5130 -91.5170 327° Northwest 404 465 36,000  Level FlightAware ADS-B
Sun 06:22:12 PM 41.5690 -91.5640 328° Northwest 403 464 36,000  Level FlightAware ADS-B
Sun 06:23:12 PM 41.6620 -91.6440 327° Northwest 402 463 36,000  Level FlightAware ADS-B
Sun 06:24:02 PM 41.7380 -91.7090 327° Northwest 400 460 36,000  Level FlightAware ADS-B
Sun 06:24:52 PM 41.8160 -91.7750 328° Northwest 398 458 36,000  Level FlightAware ADS-B
Sun 06:25:37 PM 41.8840 -91.8350 327° Northwest 389 448 36,000  Level FlightAware ADS-B
Sun 06:26:22 PM 41.9540 -91.8940 328° Northwest 389 448 36,000  Level FlightAware ADS-B
Sun 06:27:02 PM 42.0160 -91.9480 327° Northwest 387 445 36,000  Level FlightAware ADS-B
Sun 06:27:42 PM 42.0760 -92.0010 327° Northwest 386 444 36,000  Level FlightAware ADS-B
Sun 06:28:27 PM 42.1460 -92.0610 328° Northwest 385 443 36,000  Level FlightAware ADS-B
Sun 06:29:07 PM 42.2070 -92.1140 327° Northwest 384 442 36,000  Level FlightAware ADS-B
Sun 06:29:52 PM 42.2750 -92.1740 327° Northwest 383 441 36,000  Level FlightAware ADS-B
Sun 06:30:27 PM 42.3260 -92.2190 327° Northwest 388 447 36,000  Level FlightAware ADS-B
Sun 06:31:12 PM 42.3980 -92.2820 327° Northwest 387 445 36,000 -133 Level FlightAware ADS-B
Sun 06:31:57 PM 42.4650 -92.3410 327° Northwest 385 443 35,800 -565 Descending FlightAware ADS-B
Sun 06:32:37 PM 42.5260 -92.3940 327° Northwest 384 442 35,200 -776 Descending FlightAware ADS-B
Sun 06:33:22 PM 42.5920 -92.4570 325° Northwest 377 434 34,700 -776 Descending FlightAware ADS-B
Sun 06:34:02 PM 42.6500 -92.5070 328° Northwest 368 423 34,100 -494 Descending FlightAware ADS-B
Sun 06:34:47 PM 42.7130 -92.5630 327° Northwest 373 429 34,000 -71 Descending FlightAware ADS-B
Sun 06:35:27 PM 42.7700 -92.6170 325° Northwest 373 429 34,000  Level FlightAware ADS-B
Sun 06:36:07 PM 42.8270 -92.6700 326° Northwest 371 427 34,000  Level FlightAware ADS-B
Sun 06:36:52 PM 42.8920 -92.7300 326° Northwest 369 425 34,000  Level FlightAware ADS-B
Sun 06:37:32 PM 42.9480 -92.7820 326° Northwest 365 420 34,000  Level FlightAware ADS-B
Sun 06:38:12 PM 43.0030 -92.8340 325° Northwest 363 418 34,000  Level FlightAware ADS-B
Sun 06:38:57 PM 43.0640 -92.8910 326° Northwest 362 417 34,000  Level FlightAware ADS-B
Sun 06:39:37 PM 43.1200 -92.9430 326° Northwest 363 418 34,000  Level FlightAware ADS-B
Sun 06:40:22 PM 43.1830 -93.0020 326° Northwest 363 418 34,000  Level FlightAware ADS-B
Sun 06:41:02 PM 43.2390 -93.0550 325° Northwest 363 418 34,000  Level FlightAware ADS-B
Sun 06:41:42 PM 43.2950 -93.1070 326° Northwest 361 415 34,000 -847 Level FlightAware ADS-B
Sun 06:42:27 PM 43.3540 -93.1640 325° Northwest 364 419 32,800 -2,682 Descending FlightAware ADS-B
Sun 06:43:07 PM 43.4070 -93.2140 326° Northwest 382 440 30,200 -4,165 Descending FlightAware ADS-B
Sun 06:43:52 PM 43.4810 -93.2830 326° Northwest 392 451 26,900 -3,318 Descending FlightAware ADS-B
Sun 06:44:32 PM 43.5440 -93.3200 337° Northwest 364 419 25,500 -1,964 Descending FlightAware ADS-B
Sun 06:44:47 PM 43.5660 -93.3210 358° North 360 414 25,100 -2,291 Descending FlightAware ADS-B
Sun 06:45:27 PM 43.6350 -93.3150 North 381 438 23,400 -2,850 Descending FlightAware ADS-B
Sun 06:46:07 PM 43.7030 -93.3080 North 385 443 21,300 -3,176 Descending FlightAware ADS-B
Sun 06:46:52 PM 43.7900 -93.2990 North 377 434 18,900 -3,176 Descending FlightAware ADS-B
Sun 06:47:32 PM 43.8600 -93.2930 North 373 429 16,800 -2,894 Descending FlightAware ADS-B
Sun 06:48:17 PM 43.9350 -93.2860 North 364 419 14,800 -2,612 Descending FlightAware ADS-B
Sun 06:48:57 PM 44.0010 -93.2790 North 358 412 13,100 -2,612 Descending FlightAware ADS-B
Sun 06:49:42 PM 44.0770 -93.2720 North 349 402 11,100 -1,906 Descending FlightAware ADS-B
Sun 06:50:22 PM 44.1390 -93.2660 North 319 367 10,400 -706 Descending FlightAware ADS-B
Sun 06:51:07 PM 44.2000 -93.2600 North 281 323 10,100 -429 Descending FlightAware ADS-B
Sun 06:51:32 PM 44.2330 -93.2570 North 262 302 9,900 -327 Descending FlightAware ADS-B
Sun 06:52:02 PM 44.2680 -93.2540 North 255 293 9,800 -109 Descending FlightAware ADS-B
Sun 06:52:27 PM 44.2960 -93.2510 North 261 300 9,800  Level FlightAware ADS-B
Sun 06:52:42 PM 44.3160 -93.2470 North 264 304 9,800  Level FlightAware ADS-B
Sun 06:53:12 PM 44.3500 -93.2250 25° Northeast 269 310 9,800 -218 Level FlightAware ADS-B
Sun 06:53:37 PM 44.3770 -93.2050 28° Northeast 265 305 9,600 -1,200 Descending FlightAware ADS-B
Sun 06:54:07 PM 44.4110 -93.1820 26° Northeast 266 306 8,700 -1,733 Descending FlightAware ADS-B
Sun 06:54:22 PM 44.4270 -93.1710 26° Northeast 262 302 8,300 -1,200 Descending FlightAware ADS-B
Sun 06:54:37 PM 44.4430 -93.1680 North 252 290 8,100 -720 Descending FlightAware ADS-B
Sun 06:54:47 PM 44.4550 -93.1680 360° North 244 281 8,000 -480 Descending FlightAware ADS-B
Sun 06:55:02 PM 44.4730 -93.1700 355° North 233 268 7,900 -800 Descending FlightAware ADS-B
Sun 06:55:32 PM 44.5030 -93.1760 352° North 213 245 7,400 -873 Descending FlightAware ADS-B
Sun 06:55:57 PM 44.5260 -93.1810 351° North 193 222 7,100 -655 Descending FlightAware ADS-B
Sun 06:56:27 PM 44.5510 -93.1880 349° North 174 200 6,800 -400 Descending FlightAware ADS-B
Sun 06:56:42 PM 44.5640 -93.1920 348° North 169 194 6,800 -267 Level FlightAware ADS-B
Sun 06:57:12 PM 44.5870 -93.1980 349° North 172 198 6,600 -764 Descending FlightAware ADS-B
Sun 06:57:37 PM 44.6060 -93.2030 349° North 171 197 6,100 -982 Descending FlightAware ADS-B
Sun 06:58:07 PM 44.6290 -93.2090 349° North 173 199 5,700 -982 Descending FlightAware ADS-B
Sun 06:58:32 PM 44.6500 -93.2140 350° North 173 199 5,200 -1,091 Descending FlightAware ADS-B
Sun 06:59:02 PM 44.6740 -93.2200 350° North 178 205 4,700 -873 Descending FlightAware ADS-B
Sun 06:59:27 PM 44.6930 -93.2250 349° North 169 194 4,400 -873 Descending FlightAware ADS-B
Sun 06:59:57 PM 44.7160 -93.2310 349° North 163 188 3,900 -1,000 Descending FlightAware ADS-B
Sun 07:00:27 PM 44.7380 -93.2360 351° North 168 193 3,400 -982 Descending FlightAware ADS-B
Sun 07:00:52 PM 44.7580 -93.2410 350° North 165 190 3,000 -840 Descending FlightAware ADS-B
Sun 07:01:17 PM 44.7760 -93.2460 349° North 150 173 2,700 -764 Descending FlightAware ADS-B
Sun 07:01:47 PM 44.7950 -93.2510 349° North 150 173 2,300 -800 Descending FlightAware ADS-B
Sun 07:02:17 PM 44.8160 -93.2560 350° North 147 169 1,900 -873 Descending FlightAware ADS-B
Sun 07:02:42 PM 44.8330 -93.2610 348° North 145 167 1,500 -873 Descending FlightAware ADS-B
Sun 07:03:12 PM 44.8540 -93.2660 350° North 148 170 1,100 -700 Descending FlightAware ADS-B
Sun 07:03:42 PM 44.8740 -93.2710 350° North 144 166 800 -600 Descending FlightAware ADS-B

Login

Don't have an account? Register now (free) for customized features, flight alerts, and more!